sensor_id;sensor_type;location;lat;lon;timestamp;P1;durP1;ratioP1;P2;durP2;ratioP2
4084;SDS011;2057;50.858;6.572;2022-09-09T00:04:28;5.50;;;1.40;;
4084;SDS011;2057;50.858;6.572;2022-09-09T00:09:28;1.87;;;1.00;;
4084;SDS011;2057;50.858;6.572;2022-09-09T00:11:58;1.50;;;1.00;;
4084;SDS011;2057;50.858;6.572;2022-09-09T00:14:35;5.23;;;1.07;;
4084;SDS011;2057;50.858;6.572;2022-09-09T00:17:20;2.63;;;1.37;;
4084;SDS011;2057;50.858;6.572;2022-09-09T00:20:12;4.00;;;1.20;;
4084;SDS011;2057;50.858;6.572;2022-09-09T00:22:59;4.40;;;1.20;;
4084;SDS011;2057;50.858;6.572;2022-09-09T00:25:35;5.57;;;1.03;;
4084;SDS011;2057;50.858;6.572;2022-09-09T00:28:13;2.00;;;0.90;;
4084;SDS011;2057;50.858;6.572;2022-09-09T00:30:44;2.50;;;1.20;;
4084;SDS011;2057;50.858;6.572;2022-09-09T00:33:13;1.60;;;0.83;;
4084;SDS011;2057;50.858;6.572;2022-09-09T00:35:44;3.50;;;1.03;;
4084;SDS011;2057;50.858;6.572;2022-09-09T00:38:20;1.00;;;0.80;;
4084;SDS011;2057;50.858;6.572;2022-09-09T00:40:52;2.77;;;1.00;;
4084;SDS011;2057;50.858;6.572;2022-09-09T00:46:01;2.63;;;0.80;;
4084;SDS011;2057;50.858;6.572;2022-09-09T00:48:46;1.73;;;0.80;;
4084;SDS011;2057;50.858;6.572;2022-09-09T00:57:13;3.93;;;1.03;;
4084;SDS011;2057;50.858;6.572;2022-09-09T01:02:25;1.57;;;1.07;;
4084;SDS011;2057;50.858;6.572;2022-09-09T01:05:07;1.93;;;1.00;;
4084;SDS011;2057;50.858;6.572;2022-09-09T01:07:42;1.80;;;0.90;;
4084;SDS011;2057;50.858;6.572;2022-09-09T01:10:26;2.70;;;0.93;;
4084;SDS011;2057;50.858;6.572;2022-09-09T01:13:01;2.30;;;1.20;;
4084;SDS011;2057;50.858;6.572;2022-09-09T01:15:36;5.80;;;1.47;;
4084;SDS011;2057;50.858;6.572;2022-09-09T01:18:10;2.93;;;1.30;;
4084;SDS011;2057;50.858;6.572;2022-09-09T01:20:53;8.07;;;1.50;;
4084;SDS011;2057;50.858;6.572;2022-09-09T01:23:30;12.83;;;1.53;;
4084;SDS011;2057;50.858;6.572;2022-09-09T01:29:00;2.60;;;1.50;;
4084;SDS011;2057;50.858;6.572;2022-09-09T01:34:44;3.23;;;1.10;;
4084;SDS011;2057;50.858;6.572;2022-09-09T01:37:09;4.70;;;1.50;;
4084;SDS011;2057;50.858;6.572;2022-09-09T01:39:37;3.37;;;1.67;;
4084;SDS011;2057;50.858;6.572;2022-09-09T01:42:06;2.93;;;1.40;;
4084;SDS011;2057;50.858;6.572;2022-09-09T01:44:34;3.70;;;1.37;;
4084;SDS011;2057;50.858;6.572;2022-09-09T01:47:02;4.93;;;1.83;;
4084;SDS011;2057;50.858;6.572;2022-09-09T01:49:28;4.60;;;1.33;;
4084;SDS011;2057;50.858;6.572;2022-09-09T01:51:53;2.50;;;1.20;;
4084;SDS011;2057;50.858;6.572;2022-09-09T01:54:22;2.70;;;1.40;;
4084;SDS011;2057;50.858;6.572;2022-09-09T02:02:28;2.90;;;1.27;;
4084;SDS011;2057;50.858;6.572;2022-09-09T02:04:54;4.30;;;1.40;;
4084;SDS011;2057;50.858;6.572;2022-09-09T02:09:52;6.73;;;1.90;;
4084;SDS011;2057;50.858;6.572;2022-09-09T02:12:23;13.60;;;2.30;;
4084;SDS011;2057;50.858;6.572;2022-09-09T02:14:52;6.53;;;1.73;;
4084;SDS011;2057;50.858;6.572;2022-09-09T02:17:34;2.93;;;1.40;;
4084;SDS011;2057;50.858;6.572;2022-09-09T02:20:04;7.53;;;2.20;;
4084;SDS011;2057;50.858;6.572;2022-09-09T02:22:33;6.13;;;1.80;;
4084;SDS011;2057;50.858;6.572;2022-09-09T02:25:01;7.13;;;1.67;;
4084;SDS011;2057;50.858;6.572;2022-09-09T02:27:28;5.20;;;1.67;;
4084;SDS011;2057;50.858;6.572;2022-09-09T02:29:54;8.37;;;1.83;;
4084;SDS011;2057;50.858;6.572;2022-09-09T02:32:23;7.53;;;1.80;;
4084;SDS011;2057;50.858;6.572;2022-09-09T02:35:00;7.53;;;2.70;;
4084;SDS011;2057;50.858;6.572;2022-09-09T02:37:32;9.70;;;2.87;;
4084;SDS011;2057;50.858;6.572;2022-09-09T02:40:03;5.80;;;2.07;;
4084;SDS011;2057;50.858;6.572;2022-09-09T02:42:29;10.30;;;2.40;;
4084;SDS011;2057;50.858;6.572;2022-09-09T02:44:55;4.17;;;1.90;;
4084;SDS011;2057;50.858;6.572;2022-09-09T02:47:30;11.73;;;2.30;;
4084;SDS011;2057;50.858;6.572;2022-09-09T02:50:17;5.93;;;2.60;;
4084;SDS011;2057;50.858;6.572;2022-09-09T02:55:48;10.43;;;2.80;;
4084;SDS011;2057;50.858;6.572;2022-09-09T02:58:18;11.37;;;2.37;;
4084;SDS011;2057;50.858;6.572;2022-09-09T03:00:47;8.83;;;2.13;;
4084;SDS011;2057;50.858;6.572;2022-09-09T03:03:15;10.43;;;2.27;;
4084;SDS011;2057;50.858;6.572;2022-09-09T03:05:42;8.40;;;1.70;;
4084;SDS011;2057;50.858;6.572;2022-09-09T03:08:08;11.47;;;3.20;;
4084;SDS011;2057;50.858;6.572;2022-09-09T03:10:34;7.53;;;2.23;;
4084;SDS011;2057;50.858;6.572;2022-09-09T03:13:00;8.77;;;2.50;;
4084;SDS011;2057;50.858;6.572;2022-09-09T03:15:26;9.97;;;2.23;;
4084;SDS011;2057;50.858;6.572;2022-09-09T03:17:56;7.50;;;2.30;;
4084;SDS011;2057;50.858;6.572;2022-09-09T03:20:22;17.37;;;2.37;;
4084;SDS011;2057;50.858;6.572;2022-09-09T03:22:48;3.73;;;2.10;;
4084;SDS011;2057;50.858;6.572;2022-09-09T03:25:13;5.47;;;2.77;;
4084;SDS011;2057;50.858;6.572;2022-09-09T03:27:39;14.17;;;3.67;;
4084;SDS011;2057;50.858;6.572;2022-09-09T03:30:05;13.97;;;2.97;;
4084;SDS011;2057;50.858;6.572;2022-09-09T03:32:31;8.30;;;1.80;;
4084;SDS011;2057;50.858;6.572;2022-09-09T03:34:56;18.57;;;3.30;;
4084;SDS011;2057;50.858;6.572;2022-09-09T03:37:22;9.83;;;2.53;;
4084;SDS011;2057;50.858;6.572;2022-09-09T03:39:47;8.37;;;2.20;;
4084;SDS011;2057;50.858;6.572;2022-09-09T03:42:13;18.73;;;2.40;;
4084;SDS011;2057;50.858;6.572;2022-09-09T03:44:39;6.07;;;2.53;;
4084;SDS011;2057;50.858;6.572;2022-09-09T03:47:06;16.23;;;2.87;;
4084;SDS011;2057;50.858;6.572;2022-09-09T03:49:32;8.03;;;2.40;;
4084;SDS011;2057;50.858;6.572;2022-09-09T03:51:57;10.37;;;2.50;;
4084;SDS011;2057;50.858;6.572;2022-09-09T03:54:24;7.77;;;2.23;;
4084;SDS011;2057;50.858;6.572;2022-09-09T03:56:50;8.80;;;2.63;;
4084;SDS011;2057;50.858;6.572;2022-09-09T03:59:15;5.33;;;1.60;;
4084;SDS011;2057;50.858;6.572;2022-09-09T04:01:40;5.53;;;1.87;;
4084;SDS011;2057;50.858;6.572;2022-09-09T04:04:06;13.57;;;2.40;;
4084;SDS011;2057;50.858;6.572;2022-09-09T04:06:32;3.67;;;1.60;;
4084;SDS011;2057;50.858;6.572;2022-09-09T04:08:58;16.63;;;2.27;;
4084;SDS011;2057;50.858;6.572;2022-09-09T04:11:23;8.03;;;2.60;;
4084;SDS011;2057;50.858;6.572;2022-09-09T04:13:49;10.67;;;2.97;;
4084;SDS011;2057;50.858;6.572;2022-09-09T04:16:14;11.57;;;2.60;;
4084;SDS011;2057;50.858;6.572;2022-09-09T04:18:40;9.73;;;2.40;;
4084;SDS011;2057;50.858;6.572;2022-09-09T04:21:07;7.20;;;2.20;;
4084;SDS011;2057;50.858;6.572;2022-09-09T04:23:35;8.60;;;2.57;;
4084;SDS011;2057;50.858;6.572;2022-09-09T04:26:01;7.80;;;2.70;;
4084;SDS011;2057;50.858;6.572;2022-09-09T04:28:29;4.80;;;1.97;;
4084;SDS011;2057;50.858;6.572;2022-09-09T04:30:56;16.70;;;2.60;;
4084;SDS011;2057;50.858;6.572;2022-09-09T04:33:23;10.87;;;2.00;;
4084;SDS011;2057;50.858;6.572;2022-09-09T04:35:52;10.00;;;2.10;;
4084;SDS011;2057;50.858;6.572;2022-09-09T04:38:19;10.67;;;2.53;;
4084;SDS011;2057;50.858;6.572;2022-09-09T04:40:47;11.73;;;2.40;;
4084;SDS011;2057;50.858;6.572;2022-09-09T04:43:14;9.13;;;2.00;;
4084;SDS011;2057;50.858;6.572;2022-09-09T04:45:39;7.17;;;2.37;;
4084;SDS011;2057;50.858;6.572;2022-09-09T04:48:05;10.10;;;2.40;;
4084;SDS011;2057;50.858;6.572;2022-09-09T04:50:31;9.80;;;2.37;;
4084;SDS011;2057;50.858;6.572;2022-09-09T04:52:59;5.27;;;2.37;;
4084;SDS011;2057;50.858;6.572;2022-09-09T04:55:26;8.73;;;2.20;;
4084;SDS011;2057;50.858;6.572;2022-09-09T04:57:51;10.27;;;2.33;;
4084;SDS011;2057;50.858;6.572;2022-09-09T05:00:17;2.83;;;1.37;;
4084;SDS011;2057;50.858;6.572;2022-09-09T05:02:43;8.83;;;1.60;;
4084;SDS011;2057;50.858;6.572;2022-09-09T05:05:09;10.43;;;2.03;;
4084;SDS011;2057;50.858;6.572;2022-09-09T05:07:36;6.47;;;2.33;;
4084;SDS011;2057;50.858;6.572;2022-09-09T05:10:02;14.43;;;2.30;;
4084;SDS011;2057;50.858;6.572;2022-09-09T05:12:30;7.03;;;1.97;;
4084;SDS011;2057;50.858;6.572;2022-09-09T05:14:56;8.77;;;2.70;;
4084;SDS011;2057;50.858;6.572;2022-09-09T05:17:21;4.70;;;1.83;;
4084;SDS011;2057;50.858;6.572;2022-09-09T05:19:46;12.07;;;2.83;;
4084;SDS011;2057;50.858;6.572;2022-09-09T05:22:12;6.77;;;2.40;;
4084;SDS011;2057;50.858;6.572;2022-09-09T05:24:37;6.13;;;2.03;;
4084;SDS011;2057;50.858;6.572;2022-09-09T05:27:03;6.47;;;2.00;;
4084;SDS011;2057;50.858;6.572;2022-09-09T05:29:31;9.10;;;2.70;;
4084;SDS011;2057;50.858;6.572;2022-09-09T05:31:58;9.80;;;2.33;;
4084;SDS011;2057;50.858;6.572;2022-09-09T05:34:24;12.00;;;2.20;;
4084;SDS011;2057;50.858;6.572;2022-09-09T05:36:50;15.83;;;2.60;;
4084;SDS011;2057;50.858;6.572;2022-09-09T05:39:16;14.50;;;2.13;;
4084;SDS011;2057;50.858;6.572;2022-09-09T05:41:41;7.00;;;2.40;;
4084;SDS011;2057;50.858;6.572;2022-09-09T05:44:06;6.30;;;2.17;;
4084;SDS011;2057;50.858;6.572;2022-09-09T05:46:32;5.83;;;1.83;;
4084;SDS011;2057;50.858;6.572;2022-09-09T05:48:57;7.57;;;2.50;;
4084;SDS011;2057;50.858;6.572;2022-09-09T05:51:26;10.57;;;1.90;;
4084;SDS011;2057;50.858;6.572;2022-09-09T05:53:55;5.17;;;1.83;;
4084;SDS011;2057;50.858;6.572;2022-09-09T05:56:24;4.43;;;1.73;;
4084;SDS011;2057;50.858;6.572;2022-09-09T05:58:51;6.80;;;1.90;;
4084;SDS011;2057;50.858;6.572;2022-09-09T06:03:54;5.80;;;2.20;;
4084;SDS011;2057;50.858;6.572;2022-09-09T06:06:23;4.03;;;1.77;;
4084;SDS011;2057;50.858;6.572;2022-09-09T06:08:55;6.67;;;1.93;;
4084;SDS011;2057;50.858;6.572;2022-09-09T06:11:25;6.53;;;2.17;;
4084;SDS011;2057;50.858;6.572;2022-09-09T06:13:52;6.10;;;1.93;;
4084;SDS011;2057;50.858;6.572;2022-09-09T06:16:20;6.40;;;2.57;;
4084;SDS011;2057;50.858;6.572;2022-09-09T06:18:48;6.30;;;1.80;;
4084;SDS011;2057;50.858;6.572;2022-09-09T06:21:18;11.53;;;2.73;;
4084;SDS011;2057;50.858;6.572;2022-09-09T06:23:45;3.77;;;1.53;;
4084;SDS011;2057;50.858;6.572;2022-09-09T06:26:12;11.37;;;2.67;;
4084;SDS011;2057;50.858;6.572;2022-09-09T06:28:40;13.93;;;2.67;;
4084;SDS011;2057;50.858;6.572;2022-09-09T06:31:08;8.67;;;2.40;;
4084;SDS011;2057;50.858;6.572;2022-09-09T06:33:36;10.00;;;2.07;;
4084;SDS011;2057;50.858;6.572;2022-09-09T06:36:04;5.87;;;1.73;;
4084;SDS011;2057;50.858;6.572;2022-09-09T06:38:30;7.07;;;2.40;;
4084;SDS011;2057;50.858;6.572;2022-09-09T06:40:55;5.40;;;2.00;;
4084;SDS011;2057;50.858;6.572;2022-09-09T06:43:23;5.20;;;1.93;;
4084;SDS011;2057;50.858;6.572;2022-09-09T06:45:59;16.83;;;2.33;;
4084;SDS011;2057;50.858;6.572;2022-09-09T06:48:26;17.50;;;2.50;;
4084;SDS011;2057;50.858;6.572;2022-09-09T06:53:40;12.47;;;2.10;;
4084;SDS011;2057;50.858;6.572;2022-09-09T06:58:34;10.43;;;2.50;;
4084;SDS011;2057;50.858;6.572;2022-09-09T07:01:01;8.33;;;1.77;;
4084;SDS011;2057;50.858;6.572;2022-09-09T07:03:28;4.83;;;1.40;;
4084;SDS011;2057;50.858;6.572;2022-09-09T07:05:54;5.27;;;1.70;;
4084;SDS011;2057;50.858;6.572;2022-09-09T07:08:21;7.10;;;1.97;;
4084;SDS011;2057;50.858;6.572;2022-09-09T07:10:46;5.53;;;2.10;;
4084;SDS011;2057;50.858;6.572;2022-09-09T07:13:12;7.43;;;2.10;;
4084;SDS011;2057;50.858;6.572;2022-09-09T07:15:40;8.07;;;2.50;;
4084;SDS011;2057;50.858;6.572;2022-09-09T07:18:06;17.00;;;2.17;;
4084;SDS011;2057;50.858;6.572;2022-09-09T07:20:31;11.73;;;3.23;;
4084;SDS011;2057;50.858;6.572;2022-09-09T07:22:57;5.03;;;2.00;;
4084;SDS011;2057;50.858;6.572;2022-09-09T07:25:24;5.73;;;2.03;;
4084;SDS011;2057;50.858;6.572;2022-09-09T07:27:49;8.63;;;2.50;;
4084;SDS011;2057;50.858;6.572;2022-09-09T07:30:15;5.40;;;2.20;;
4084;SDS011;2057;50.858;6.572;2022-09-09T07:32:40;6.57;;;2.50;;
4084;SDS011;2057;50.858;6.572;2022-09-09T07:35:05;6.63;;;2.00;;
4084;SDS011;2057;50.858;6.572;2022-09-09T07:37:31;5.80;;;1.70;;
4084;SDS011;2057;50.858;6.572;2022-09-09T07:39:56;16.63;;;2.37;;
4084;SDS011;2057;50.858;6.572;2022-09-09T07:42:22;14.60;;;2.77;;
4084;SDS011;2057;50.858;6.572;2022-09-09T07:44:47;5.30;;;1.37;;
4084;SDS011;2057;50.858;6.572;2022-09-09T07:47:13;8.73;;;1.83;;
4084;SDS011;2057;50.858;6.572;2022-09-09T07:49:38;11.80;;;2.40;;
4084;SDS011;2057;50.858;6.572;2022-09-09T07:52:03;12.07;;;2.10;;
4084;SDS011;2057;50.858;6.572;2022-09-09T07:54:29;11.30;;;2.80;;
4084;SDS011;2057;50.858;6.572;2022-09-09T07:56:54;5.10;;;1.67;;
4084;SDS011;2057;50.858;6.572;2022-09-09T07:59:19;8.97;;;2.50;;
4084;SDS011;2057;50.858;6.572;2022-09-09T08:01:46;7.00;;;1.80;;
4084;SDS011;2057;50.858;6.572;2022-09-09T08:04:14;9.40;;;2.23;;
4084;SDS011;2057;50.858;6.572;2022-09-09T08:06:44;8.30;;;2.20;;
4084;SDS011;2057;50.858;6.572;2022-09-09T08:09:11;7.13;;;2.20;;
4084;SDS011;2057;50.858;6.572;2022-09-09T08:11:37;10.63;;;2.27;;
4084;SDS011;2057;50.858;6.572;2022-09-09T08:14:03;5.83;;;1.77;;
4084;SDS011;2057;50.858;6.572;2022-09-09T08:16:31;5.27;;;1.40;;
4084;SDS011;2057;50.858;6.572;2022-09-09T08:18:58;4.47;;;1.27;;
4084;SDS011;2057;50.858;6.572;2022-09-09T08:21:25;10.73;;;2.27;;
4084;SDS011;2057;50.858;6.572;2022-09-09T08:23:53;8.93;;;1.93;;
4084;SDS011;2057;50.858;6.572;2022-09-09T08:26:27;7.63;;;1.90;;
4084;SDS011;2057;50.858;6.572;2022-09-09T08:28:54;2.43;;;1.57;;
4084;SDS011;2057;50.858;6.572;2022-09-09T08:31:28;7.90;;;1.70;;
4084;SDS011;2057;50.858;6.572;2022-09-09T08:34:03;5.30;;;1.90;;
4084;SDS011;2057;50.858;6.572;2022-09-09T08:36:31;5.23;;;1.57;;
4084;SDS011;2057;50.858;6.572;2022-09-09T08:38:59;10.73;;;1.73;;
4084;SDS011;2057;50.858;6.572;2022-09-09T08:41:35;6.00;;;1.30;;
4084;SDS011;2057;50.858;6.572;2022-09-09T08:58:02;2.53;;;1.40;;
4084;SDS011;2057;50.858;6.572;2022-09-09T09:00:40;5.80;;;1.60;;
4084;SDS011;2057;50.858;6.572;2022-09-09T09:03:15;5.63;;;1.80;;
4084;SDS011;2057;50.858;6.572;2022-09-09T09:08:40;6.93;;;1.40;;
4084;SDS011;2057;50.858;6.572;2022-09-09T09:11:12;5.23;;;1.87;;
4084;SDS011;2057;50.858;6.572;2022-09-09T09:13:43;10.00;;;1.93;;
4084;SDS011;2057;50.858;6.572;2022-09-09T09:16:36;7.07;;;1.80;;
4084;SDS011;2057;50.858;6.572;2022-09-09T09:19:10;9.03;;;1.83;;
4084;SDS011;2057;50.858;6.572;2022-09-09T09:21:41;3.53;;;1.30;;
4084;SDS011;2057;50.858;6.572;2022-09-09T09:27:08;18.13;;;1.90;;
4084;SDS011;2057;50.858;6.572;2022-09-09T09:29:38;5.23;;;1.60;;
4084;SDS011;2057;50.858;6.572;2022-09-09T09:32:07;6.67;;;1.60;;
4084;SDS011;2057;50.858;6.572;2022-09-09T09:34:38;5.90;;;1.80;;
4084;SDS011;2057;50.858;6.572;2022-09-09T09:37:11;4.33;;;1.10;;
4084;SDS011;2057;50.858;6.572;2022-09-09T09:39:44;5.10;;;1.40;;
4084;SDS011;2057;50.858;6.572;2022-09-09T09:42:13;6.43;;;1.37;;
4084;SDS011;2057;50.858;6.572;2022-09-09T09:44:42;6.43;;;1.33;;
4084;SDS011;2057;50.858;6.572;2022-09-09T09:47:10;3.63;;;0.80;;
4084;SDS011;2057;50.858;6.572;2022-09-09T09:49:50;7.63;;;1.60;;
4084;SDS011;2057;50.858;6.572;2022-09-09T09:52:17;2.20;;;1.27;;
4084;SDS011;2057;50.858;6.572;2022-09-09T09:54:47;5.77;;;1.13;;
4084;SDS011;2057;50.858;6.572;2022-09-09T09:57:16;7.97;;;1.47;;
4084;SDS011;2057;50.858;6.572;2022-09-09T09:59:43;3.03;;;1.20;;
4084;SDS011;2057;50.858;6.572;2022-09-09T10:04:43;9.80;;;1.80;;
4084;SDS011;2057;50.858;6.572;2022-09-09T10:07:13;1.47;;;1.10;;
4084;SDS011;2057;50.858;6.572;2022-09-09T10:09:46;6.40;;;1.57;;
4084;SDS011;2057;50.858;6.572;2022-09-09T10:23:02;2.03;;;1.10;;
4084;SDS011;2057;50.858;6.572;2022-09-09T10:33:38;4.70;;;1.33;;
4084;SDS011;2057;50.858;6.572;2022-09-09T10:36:21;5.60;;;1.53;;
4084;SDS011;2057;50.858;6.572;2022-09-09T10:38:57;9.27;;;1.67;;
4084;SDS011;2057;50.858;6.572;2022-09-09T10:49:46;12.60;;;1.70;;
4084;SDS011;2057;50.858;6.572;2022-09-09T10:57:39;3.53;;;1.43;;
4084;SDS011;2057;50.858;6.572;2022-09-09T11:00:14;5.87;;;1.60;;
4084;SDS011;2057;50.858;6.572;2022-09-09T11:02:44;3.90;;;1.53;;
4084;SDS011;2057;50.858;6.572;2022-09-09T11:05:35;4.83;;;1.80;;
4084;SDS011;2057;50.858;6.572;2022-09-09T11:08:09;4.80;;;1.50;;
4084;SDS011;2057;50.858;6.572;2022-09-09T11:10:41;5.87;;;1.70;;
4084;SDS011;2057;50.858;6.572;2022-09-09T11:13:15;5.67;;;1.60;;
4084;SDS011;2057;50.858;6.572;2022-09-09T11:15:45;6.60;;;1.50;;
4084;SDS011;2057;50.858;6.572;2022-09-09T11:18:19;6.00;;;1.30;;
4084;SDS011;2057;50.858;6.572;2022-09-09T11:20:48;11.90;;;1.97;;
4084;SDS011;2057;50.858;6.572;2022-09-09T11:23:24;5.87;;;1.90;;
4084;SDS011;2057;50.858;6.572;2022-09-09T11:25:55;2.63;;;1.17;;
4084;SDS011;2057;50.858;6.572;2022-09-09T11:34:19;8.50;;;2.00;;
4084;SDS011;2057;50.858;6.572;2022-09-09T11:36:56;3.60;;;1.40;;
4084;SDS011;2057;50.858;6.572;2022-09-09T11:44:41;3.13;;;1.40;;
4084;SDS011;2057;50.858;6.572;2022-09-09T11:47:21;7.47;;;1.77;;
4084;SDS011;2057;50.858;6.572;2022-09-09T11:49:54;5.53;;;1.30;;
4084;SDS011;2057;50.858;6.572;2022-09-09T11:54:51;3.83;;;1.20;;
4084;SDS011;2057;50.858;6.572;2022-09-09T11:57:32;6.07;;;2.07;;
4084;SDS011;2057;50.858;6.572;2022-09-09T12:00:01;4.17;;;1.20;;
4084;SDS011;2057;50.858;6.572;2022-09-09T12:02:28;5.30;;;1.30;;
4084;SDS011;2057;50.858;6.572;2022-09-09T12:05:06;11.20;;;1.50;;
4084;SDS011;2057;50.858;6.572;2022-09-09T12:07:47;4.27;;;1.10;;
4084;SDS011;2057;50.858;6.572;2022-09-09T12:13:15;4.43;;;1.30;;
4084;SDS011;2057;50.858;6.572;2022-09-09T12:15:49;10.60;;;2.57;;
4084;SDS011;2057;50.858;6.572;2022-09-09T12:21:01;2.70;;;1.50;;
4084;SDS011;2057;50.858;6.572;2022-09-09T12:29:09;8.60;;;2.10;;
4084;SDS011;2057;50.858;6.572;2022-09-09T12:32:04;3.00;;;1.30;;
4084;SDS011;2057;50.858;6.572;2022-09-09T12:42:47;2.27;;;1.20;;
4084;SDS011;2057;50.858;6.572;2022-09-09T12:45:16;5.00;;;1.50;;
4084;SDS011;2057;50.858;6.572;2022-09-09T12:50:32;1.47;;;0.97;;
4084;SDS011;2057;50.858;6.572;2022-09-09T12:53:07;4.73;;;1.20;;
4084;SDS011;2057;50.858;6.572;2022-09-09T12:55:40;2.83;;;1.40;;
4084;SDS011;2057;50.858;6.572;2022-09-09T12:58:16;6.40;;;2.30;;
4084;SDS011;2057;50.858;6.572;2022-09-09T13:00:50;3.63;;;1.63;;
4084;SDS011;2057;50.858;6.572;2022-09-09T13:03:18;2.27;;;1.20;;
4084;SDS011;2057;50.858;6.572;2022-09-09T13:05:46;4.53;;;1.50;;
4084;SDS011;2057;50.858;6.572;2022-09-09T13:08:12;3.77;;;1.20;;
4084;SDS011;2057;50.858;6.572;2022-09-09T13:13:04;2.90;;;1.10;;
4084;SDS011;2057;50.858;6.572;2022-09-09T13:15:39;3.03;;;1.60;;
4084;SDS011;2057;50.858;6.572;2022-09-09T13:18:06;1.30;;;1.20;;
4084;SDS011;2057;50.858;6.572;2022-09-09T13:20:36;4.30;;;1.60;;
4084;SDS011;2057;50.858;6.572;2022-09-09T13:23:02;2.20;;;1.00;;
4084;SDS011;2057;50.858;6.572;2022-09-09T13:25:28;5.67;;;1.40;;
4084;SDS011;2057;50.858;6.572;2022-09-09T13:28:03;3.33;;;1.23;;
4084;SDS011;2057;50.858;6.572;2022-09-09T13:30:34;2.50;;;1.43;;
4084;SDS011;2057;50.858;6.572;2022-09-09T13:35:34;4.23;;;1.40;;
4084;SDS011;2057;50.858;6.572;2022-09-09T13:38:07;2.20;;;1.30;;
4084;SDS011;2057;50.858;6.572;2022-09-09T13:40:34;6.20;;;1.60;;
4084;SDS011;2057;50.858;6.572;2022-09-09T13:43:01;3.87;;;1.70;;
4084;SDS011;2057;50.858;6.572;2022-09-09T13:45:28;3.17;;;1.43;;
4084;SDS011;2057;50.858;6.572;2022-09-09T13:47:54;5.00;;;1.70;;
4084;SDS011;2057;50.858;6.572;2022-09-09T13:52:54;3.00;;;1.20;;
4084;SDS011;2057;50.858;6.572;2022-09-09T13:55:23;4.47;;;1.20;;
4084;SDS011;2057;50.858;6.572;2022-09-09T13:57:54;4.87;;;1.63;;
4084;SDS011;2057;50.858;6.572;2022-09-09T14:00:25;11.80;;;2.03;;
4084;SDS011;2057;50.858;6.572;2022-09-09T14:02:53;11.37;;;1.80;;
4084;SDS011;2057;50.858;6.572;2022-09-09T14:05:20;8.90;;;2.70;;
4084;SDS011;2057;50.858;6.572;2022-09-09T14:07:47;6.80;;;1.77;;
4084;SDS011;2057;50.858;6.572;2022-09-09T14:10:13;4.20;;;1.10;;
4084;SDS011;2057;50.858;6.572;2022-09-09T14:12:38;6.33;;;1.63;;
4084;SDS011;2057;50.858;6.572;2022-09-09T14:15:04;4.20;;;1.70;;
4084;SDS011;2057;50.858;6.572;2022-09-09T14:17:33;4.90;;;1.80;;
4084;SDS011;2057;50.858;6.572;2022-09-09T14:19:58;2.90;;;1.30;;
4084;SDS011;2057;50.858;6.572;2022-09-09T14:22:24;4.47;;;2.00;;
4084;SDS011;2057;50.858;6.572;2022-09-09T14:24:51;6.77;;;2.10;;
4084;SDS011;2057;50.858;6.572;2022-09-09T14:27:16;3.37;;;1.20;;
4084;SDS011;2057;50.858;6.572;2022-09-09T14:29:43;6.40;;;1.90;;
4084;SDS011;2057;50.858;6.572;2022-09-09T14:32:09;2.83;;;1.57;;
4084;SDS011;2057;50.858;6.572;2022-09-09T14:34:35;8.00;;;1.57;;
4084;SDS011;2057;50.858;6.572;2022-09-09T14:37:01;4.93;;;1.00;;
4084;SDS011;2057;50.858;6.572;2022-09-09T14:39:26;3.13;;;1.20;;
4084;SDS011;2057;50.858;6.572;2022-09-09T14:41:51;4.10;;;1.37;;
4084;SDS011;2057;50.858;6.572;2022-09-09T14:44:17;3.93;;;1.80;;
4084;SDS011;2057;50.858;6.572;2022-09-09T14:46:43;2.70;;;1.67;;
4084;SDS011;2057;50.858;6.572;2022-09-09T14:49:08;7.17;;;1.43;;
4084;SDS011;2057;50.858;6.572;2022-09-09T14:51:35;10.30;;;1.60;;
4084;SDS011;2057;50.858;6.572;2022-09-09T14:54:00;5.60;;;1.60;;
4084;SDS011;2057;50.858;6.572;2022-09-09T14:56:29;4.07;;;1.57;;
4084;SDS011;2057;50.858;6.572;2022-09-09T14:58:56;6.10;;;1.60;;
4084;SDS011;2057;50.858;6.572;2022-09-09T15:01:25;11.60;;;1.90;;
4084;SDS011;2057;50.858;6.572;2022-09-09T15:03:52;2.90;;;1.10;;
4084;SDS011;2057;50.858;6.572;2022-09-09T15:06:25;3.67;;;1.27;;
4084;SDS011;2057;50.858;6.572;2022-09-09T15:08:53;2.47;;;1.23;;
4084;SDS011;2057;50.858;6.572;2022-09-09T15:11:19;1.80;;;1.10;;
4084;SDS011;2057;50.858;6.572;2022-09-09T15:13:45;5.07;;;1.70;;
4084;SDS011;2057;50.858;6.572;2022-09-09T15:16:15;1.43;;;0.97;;
4084;SDS011;2057;50.858;6.572;2022-09-09T15:18:42;3.87;;;1.87;;
4084;SDS011;2057;50.858;6.572;2022-09-09T15:21:14;2.70;;;1.30;;
4084;SDS011;2057;50.858;6.572;2022-09-09T15:23:43;4.00;;;1.63;;
4084;SDS011;2057;50.858;6.572;2022-09-09T15:26:09;9.03;;;1.60;;
4084;SDS011;2057;50.858;6.572;2022-09-09T15:28:35;4.93;;;1.47;;
4084;SDS011;2057;50.858;6.572;2022-09-09T15:31:04;4.27;;;1.47;;
4084;SDS011;2057;50.858;6.572;2022-09-09T15:33:32;1.70;;;1.20;;
4084;SDS011;2057;50.858;6.572;2022-09-09T15:35:58;8.70;;;1.97;;
4084;SDS011;2057;50.858;6.572;2022-09-09T15:38:23;8.67;;;1.23;;
4084;SDS011;2057;50.858;6.572;2022-09-09T15:40:53;3.60;;;1.80;;
4084;SDS011;2057;50.858;6.572;2022-09-09T15:43:19;5.13;;;1.27;;
4084;SDS011;2057;50.858;6.572;2022-09-09T15:45:45;2.73;;;1.40;;
4084;SDS011;2057;50.858;6.572;2022-09-09T15:48:13;1.73;;;1.03;;
4084;SDS011;2057;50.858;6.572;2022-09-09T15:50:39;9.73;;;1.20;;
4084;SDS011;2057;50.858;6.572;2022-09-09T15:53:04;2.67;;;1.50;;
4084;SDS011;2057;50.858;6.572;2022-09-09T15:55:31;4.17;;;1.30;;
4084;SDS011;2057;50.858;6.572;2022-09-09T15:57:56;5.57;;;1.20;;
4084;SDS011;2057;50.858;6.572;2022-09-09T16:00:22;9.00;;;1.03;;
4084;SDS011;2057;50.858;6.572;2022-09-09T16:02:49;3.10;;;1.20;;
4084;SDS011;2057;50.858;6.572;2022-09-09T16:05:14;3.10;;;1.33;;
4084;SDS011;2057;50.858;6.572;2022-09-09T16:07:40;7.13;;;1.40;;
4084;SDS011;2057;50.858;6.572;2022-09-09T16:10:07;5.90;;;2.00;;
4084;SDS011;2057;50.858;6.572;2022-09-09T16:12:33;2.73;;;1.10;;
4084;SDS011;2057;50.858;6.572;2022-09-09T16:14:59;2.80;;;1.93;;
4084;SDS011;2057;50.858;6.572;2022-09-09T16:17:24;9.23;;;2.20;;
4084;SDS011;2057;50.858;6.572;2022-09-09T16:19:50;3.30;;;1.37;;
4084;SDS011;2057;50.858;6.572;2022-09-09T16:22:15;3.47;;;1.40;;
4084;SDS011;2057;50.858;6.572;2022-09-09T16:24:41;3.97;;;1.57;;
4084;SDS011;2057;50.858;6.572;2022-09-09T16:27:07;2.40;;;1.40;;
4084;SDS011;2057;50.858;6.572;2022-09-09T16:29:32;2.30;;;1.27;;
4084;SDS011;2057;50.858;6.572;2022-09-09T16:31:57;3.07;;;1.40;;
4084;SDS011;2057;50.858;6.572;2022-09-09T16:34:25;3.13;;;1.27;;
4084;SDS011;2057;50.858;6.572;2022-09-09T16:36:50;3.47;;;1.17;;
4084;SDS011;2057;50.858;6.572;2022-09-09T16:39:17;3.47;;;0.97;;
4084;SDS011;2057;50.858;6.572;2022-09-09T16:41:44;2.13;;;1.07;;
4084;SDS011;2057;50.858;6.572;2022-09-09T16:44:12;5.57;;;1.37;;
4084;SDS011;2057;50.858;6.572;2022-09-09T16:46:40;2.17;;;1.30;;
4084;SDS011;2057;50.858;6.572;2022-09-09T16:49:08;9.93;;;1.60;;
4084;SDS011;2057;50.858;6.572;2022-09-09T16:51:36;3.47;;;1.47;;
4084;SDS011;2057;50.858;6.572;2022-09-09T16:54:04;2.50;;;1.00;;
4084;SDS011;2057;50.858;6.572;2022-09-09T16:56:35;3.53;;;1.00;;
4084;SDS011;2057;50.858;6.572;2022-09-09T16:59:03;2.40;;;1.00;;
4084;SDS011;2057;50.858;6.572;2022-09-09T17:01:32;2.17;;;1.40;;
4084;SDS011;2057;50.858;6.572;2022-09-09T17:04:02;2.30;;;1.33;;
4084;SDS011;2057;50.858;6.572;2022-09-09T17:06:30;1.97;;;1.53;;
4084;SDS011;2057;50.858;6.572;2022-09-09T17:09:00;2.97;;;1.60;;
4084;SDS011;2057;50.858;6.572;2022-09-09T17:11:28;4.37;;;1.53;;
4084;SDS011;2057;50.858;6.572;2022-09-09T17:13:55;2.13;;;1.20;;
4084;SDS011;2057;50.858;6.572;2022-09-09T17:16:24;4.87;;;1.60;;
4084;SDS011;2057;50.858;6.572;2022-09-09T17:18:52;4.83;;;1.83;;
4084;SDS011;2057;50.858;6.572;2022-09-09T17:21:18;4.50;;;1.43;;
4084;SDS011;2057;50.858;6.572;2022-09-09T17:23:45;2.80;;;1.37;;
4084;SDS011;2057;50.858;6.572;2022-09-09T17:26:12;4.93;;;1.73;;
4084;SDS011;2057;50.858;6.572;2022-09-09T17:28:40;3.90;;;1.73;;
4084;SDS011;2057;50.858;6.572;2022-09-09T17:31:07;2.07;;;1.40;;
4084;SDS011;2057;50.858;6.572;2022-09-09T17:33:34;2.70;;;1.33;;
4084;SDS011;2057;50.858;6.572;2022-09-09T17:36:02;3.00;;;1.67;;
4084;SDS011;2057;50.858;6.572;2022-09-09T17:38:33;7.90;;;1.40;;
4084;SDS011;2057;50.858;6.572;2022-09-09T17:41:05;3.33;;;1.63;;
4084;SDS011;2057;50.858;6.572;2022-09-09T17:43:33;2.80;;;1.73;;